Time;durP1;ratioP1;P1;durP2;ratioP2;P2;SDS_P1;SDS_P2;PMS_P1;PMS_P2;Temp;Humidity;BMP_temperature;BMP_pressure;BME280_temperature;BME280_humidity;BME280_pressure;Samples;Min_cycle;Max_cycle;Signal;HPM_P1;HPM_P2
2022/10/09 00:01:04;;;;;;;4.37;3.93;;;9.60;1.00;;;;;;6338633;27;20749;-54
2022/10/09 00:04:06;;;;;;;3.80;3.60;;;9.60;1.00;;;;;;6335568;27;20614;-54
2022/10/09 00:07:09;;;;;;;3.90;3.60;;;9.60;1.00;;;;;;6331891;27;20233;-54
2022/10/09 00:10:13;;;;;;;3.93;3.63;;;9.50;1.00;;;;;;6309976;28;20240;-53
2022/10/09 00:13:16;;;;;;;4.77;3.67;;;9.50;1.00;;;;;;6310370;28;20244;-54
2022/10/09 00:16:20;;;;;;;6.10;3.77;;;9.50;1.00;;;;;;6310021;28;20593;-53
2022/10/09 00:19:23;;;;;;;4.00;3.80;;;9.40;1.00;;;;;;6322918;27;20311;-53
2022/10/09 00:22:26;;;;;;;6.90;4.00;;;9.40;1.00;;;;;;6335936;27;20250;-53
2022/10/09 00:25:30;;;;;;;4.07;3.87;;;9.40;1.00;;;;;;6320182;28;20693;-53
2022/10/09 00:28:33;;;;;;;4.00;3.70;;;9.30;1.00;;;;;;6309171;28;20240;-54
2022/10/09 00:31:40;;;;;;;5.30;4.33;;;9.30;1.00;;;;;;6309320;28;20259;-54
2022/10/09 00:34:43;;;;;;;3.70;3.50;;;9.30;1.00;;;;;;6329970;27;20616;-53
2022/10/09 00:37:48;;;;;;;4.37;4.00;;;9.20;1.00;;;;;;6332640;27;20392;-54
2022/10/09 00:40:52;;;;;;;4.20;3.80;;;9.20;1.00;;;;;;6325894;28;20239;-53
2022/10/09 00:43:57;;;;;;;3.67;3.47;;;9.20;1.00;;;;;;6328937;28;20224;-53
2022/10/09 00:47:00;;;;;;;3.83;3.53;;;9.20;1.00;;;;;;6318243;28;20240;-53
2022/10/09 00:50:06;;;;;;;5.80;4.20;;;9.10;1.00;;;;;;6319498;27;20228;-52
2022/10/09 00:53:13;;;;;;;4.30;3.63;;;9.10;1.00;;;;;;6328019;27;20251;-53
2022/10/09 00:56:17;;;;;;;4.23;3.87;;;9.10;1.00;;;;;;6309042;28;20638;-54
2022/10/09 00:59:21;;;;;;;5.90;3.57;;;9.10;1.00;;;;;;6309665;28;20236;-53
2022/10/09 01:02:24;;;;;;;5.57;4.00;;;9.10;1.00;;;;;;6310356;28;20419;-54
2022/10/09 01:05:39;;;;;;;5.63;3.63;;;9.00;1.00;;;;;;6333943;27;20733;-53
2022/10/09 01:08:51;;;;;;;7.37;4.07;;;9.10;1.00;;;;;;6319481;27;20698;-53
2022/10/09 01:12:00;;;;;;;7.23;4.53;;;9.00;1.00;;;;;;6308745;28;20717;-53
2022/10/09 01:15:11;;;;;;;4.33;3.47;;;9.00;1.00;;;;;;6308830;28;20647;-54
2022/10/09 01:18:22;;;;;;;5.43;4.33;;;9.00;1.00;;;;;;6316259;28;20239;-54
2022/10/09 01:21:29;;;;;;;5.40;4.23;;;9.00;1.00;;;;;;6336876;27;20793;-53
2022/10/09 01:24:37;;;;;;;5.83;4.10;;;9.00;1.00;;;;;;6323291;27;20264;-54
2022/10/09 01:27:42;;;;;;;3.83;3.63;;;9.00;1.00;;;;;;6333367;27;20239;-53
2022/10/09 01:30:46;;;;;;;4.00;3.60;;;9.00;1.00;;;;;;6334451;28;20232;-53
2022/10/09 01:33:50;;;;;;;4.00;3.60;;;9.00;1.00;;;;;;6328113;27;20322;-53
2022/10/09 01:36:54;;;;;;;5.50;3.60;;;9.00;1.00;;;;;;6331987;27;20251;-54
2022/10/09 01:39:58;;;;;;;3.93;3.67;;;8.90;1.00;;;;;;6326357;28;20228;-54
2022/10/09 01:43:02;;;;;;;4.00;3.57;;;8.90;1.00;;;;;;6310459;28;20247;-54
2022/10/09 01:46:19;;;;;;;6.93;3.83;;;8.90;1.00;;;;;;6308326;28;20236;-54
2022/10/09 01:49:38;;;;;;;4.63;4.20;;;8.90;1.00;;;;;;6312965;28;20224;-54
2022/10/09 01:52:46;;;;;;;4.87;3.57;;;8.90;1.00;;;;;;6325915;27;20401;-58
2022/10/09 01:55:58;;;;;;;3.87;3.43;;;8.90;1.00;;;;;;6330823;28;20224;-52
2022/10/09 01:59:07;;;;;;;3.57;3.37;;;8.90;1.00;;;;;;6320079;28;20232;-53
2022/10/09 02:02:17;;;;;;;4.37;3.70;;;8.90;1.00;;;;;;6336578;28;20772;-54
2022/10/09 02:05:27;;;;;;;7.37;3.73;;;8.80;1.00;;;;;;6335597;27;20958;-53
2022/10/09 02:08:32;;;;;;;5.40;3.90;;;8.90;1.00;;;;;;6313267;28;20233;-53
2022/10/09 02:11:37;;;;;;;6.70;4.10;;;8.80;1.00;;;;;;6312664;28;20645;-53
2022/10/09 02:14:41;;;;;;;3.87;3.57;;;9.00;1.00;;;;;;6313307;28;20240;-53
2022/10/09 02:17:48;;;;;;;4.10;3.70;;;8.90;1.00;;;;;;6312469;28;20236;-54
2022/10/09 02:20:55;;;;;;;7.77;3.87;;;8.80;1.00;;;;;;6322890;27;20797;-53
2022/10/09 02:23:59;;;;;;;3.97;3.47;;;8.80;1.00;;;;;;6337885;27;20243;-53
2022/10/09 02:27:02;;;;;;;6.43;3.90;;;8.70;1.00;;;;;;6325770;27;20236;-53
2022/10/09 02:30:09;;;;;;;9.57;3.80;;;8.70;1.00;;;;;;6313819;28;20235;-54
2022/10/09 02:33:11;;;;;;;4.00;3.70;;;8.70;1.00;;;;;;6318190;28;20232;-54
2022/10/09 02:36:14;;;;;;;4.53;3.50;;;8.80;1.00;;;;;;6331698;27;20228;-54
2022/10/09 02:39:17;;;;;;;6.00;3.97;;;8.70;1.00;;;;;;6336932;28;20228;-53
2022/10/09 02:42:21;;;;;;;5.53;3.67;;;8.70;1.00;;;;;;6337299;27;20401;-53
2022/10/09 02:45:25;;;;;;;4.33;3.60;;;8.80;1.00;;;;;;6326989;28;20615;-53
2022/10/09 02:48:28;;;;;;;6.13;4.10;;;8.70;1.00;;;;;;6327066;28;20238;-54
2022/10/09 02:51:30;;;;;;;4.00;3.67;;;8.70;1.00;;;;;;6338008;27;20511;-52
2022/10/09 02:54:33;;;;;;;4.00;3.70;;;8.70;1.00;;;;;;6330235;27;20242;-53
2022/10/09 02:57:36;;;;;;;5.53;3.60;;;8.70;1.00;;;;;;6336496;27;20232;-53
2022/10/09 03:00:40;;;;;;;3.63;3.43;;;8.70;1.00;;;;;;6336901;27;20479;-53
2022/10/09 03:03:44;;;;;;;6.40;4.53;;;8.70;1.00;;;;;;6329032;27;20228;-54
2022/10/09 03:06:47;;;;;;;8.20;4.23;;;8.60;1.00;;;;;;6335672;27;20239;-53
2022/10/09 03:09:49;;;;;;;7.73;4.37;;;8.80;1.00;;;;;;6336174;27;20255;-54
2022/10/09 03:12:52;;;;;;;4.77;4.20;;;8.60;1.00;;;;;;6313835;27;20272;-53
2022/10/09 03:16:02;;;;;;;4.47;4.07;;;8.60;1.00;;;;;;6311366;28;20229;-53
2022/10/09 03:19:05;;;;;;;6.57;4.33;;;8.60;1.00;;;;;;6310866;28;20290;-53
2022/10/09 03:22:08;;;;;;;4.43;3.67;;;8.50;1.00;;;;;;6334554;27;20239;-53
2022/10/09 03:25:11;;;;;;;4.33;3.50;;;8.70;1.00;;;;;;6333178;27;20267;-53
2022/10/09 03:28:14;;;;;;;6.40;3.70;;;8.40;1.00;;;;;;6326652;28;20236;-53
2022/10/09 03:31:24;;;;;;;6.23;3.93;;;8.60;1.00;;;;;;6325796;27;20713;-53
2022/10/09 03:34:47;;;;;;;5.90;3.90;;;8.40;1.00;;;;;;6325188;27;20236;-53
2022/10/09 03:37:50;;;;;;;8.37;4.30;;;8.50;1.00;;;;;;6334351;27;20224;-53
2022/10/09 03:40:53;;;;;;;3.87;3.67;;;8.40;1.00;;;;;;6324644;27;20406;-54
2022/10/09 03:43:56;;;;;;;4.47;4.03;;;8.40;1.00;;;;;;6343525;27;20239;-54
2022/10/09 03:47:00;;;;;;;7.67;4.30;;;8.40;1.00;;;;;;6339889;27;20228;-54
2022/10/09 03:50:03;;;;;;;4.17;3.70;;;8.40;1.00;;;;;;6330283;27;20300;-53
2022/10/09 03:53:07;;;;;;;6.90;4.07;;;8.40;1.00;;;;;;6333690;28;20239;-53
2022/10/09 03:56:09;;;;;;;6.03;5.23;;;8.40;1.00;;;;;;6333775;27;20292;-53
2022/10/09 03:59:12;;;;;;;5.30;3.77;;;8.30;1.00;;;;;;6335273;27;20255;-53
2022/10/09 04:02:16;;;;;;;8.13;3.90;;;8.30;1.00;;;;;;6336244;27;20236;-52
2022/10/09 04:05:19;;;;;;;4.40;3.70;;;8.30;1.00;;;;;;6331453;27;20236;-54
2022/10/09 04:08:22;;;;;;;3.60;3.40;;;8.30;1.00;;;;;;6324453;28;20704;-53
2022/10/09 04:11:25;;;;;;;3.57;3.30;;;8.30;1.00;;;;;;6333478;28;20272;-54
2022/10/09 04:14:28;;;;;;;8.63;4.13;;;8.30;1.00;;;;;;6339590;27;20235;-53
2022/10/09 04:17:32;;;;;;;4.07;3.47;;;8.20;1.00;;;;;;6334440;27;20420;-54
2022/10/09 04:20:34;;;;;;;3.73;3.40;;;8.20;1.00;;;;;;6326649;27;20254;-53
2022/10/09 04:23:37;;;;;;;4.00;3.77;;;8.20;1.00;;;;;;6330560;27;20239;-53
2022/10/09 04:26:40;;;;;;;3.83;3.53;;;8.20;1.00;;;;;;6333683;27;20849;-53
2022/10/09 04:29:43;;;;;;;6.10;4.20;;;8.50;1.00;;;;;;6332080;27;20246;-53
2022/10/09 04:32:47;;;;;;;4.23;3.83;;;8.20;1.00;;;;;;6333027;27;20243;-53
2022/10/09 04:35:53;;;;;;;4.20;3.87;;;8.10;1.00;;;;;;6329818;27;20590;-52
2022/10/09 04:38:56;;;;;;;8.17;3.70;;;8.30;1.00;;;;;;6331605;27;20243;-53
2022/10/09 04:41:58;;;;;;;4.80;3.97;;;8.10;1.00;;;;;;6343317;27;20247;-54
2022/10/09 04:45:01;;;;;;;5.33;3.77;;;8.30;1.00;;;;;;6332475;27;20240;-53
2022/10/09 04:48:05;;;;;;;4.20;3.87;;;8.20;1.00;;;;;;6336757;27;20244;-53
2022/10/09 04:51:09;;;;;;;5.67;4.10;;;8.10;1.00;;;;;;6333448;27;20239;-54
2022/10/09 04:54:12;;;;;;;4.00;3.70;;;8.30;1.00;;;;;;6328292;27;20277;-55
2022/10/09 04:57:15;;;;;;;4.20;3.90;;;8.10;1.00;;;;;;6327421;27;20228;-52
2022/10/09 05:00:18;;;;;;;5.47;4.27;;;8.00;1.00;;;;;;6333519;27;20231;-53
2022/10/09 05:03:22;;;;;;;4.10;3.80;;;8.00;1.00;;;;;;6329024;27;20258;-54
2022/10/09 05:06:25;;;;;;;4.70;4.30;;;7.90;1.00;;;;;;6333338;27;20219;-54
2022/10/09 05:09:28;;;;;;;13.97;6.80;;;7.80;1.00;;;;;;6318431;28;20700;-53
2022/10/09 05:12:31;;;;;;;7.10;6.20;;;7.90;1.00;;;;;;6325201;27;20232;-53
2022/10/09 05:15:36;;;;;;;7.23;5.83;;;7.80;1.00;;;;;;6332600;27;20235;-53
2022/10/09 05:18:43;;;;;;;6.70;4.97;;;7.70;1.00;;;;;;6331430;28;20606;-53
2022/10/09 05:21:46;;;;;;;12.67;6.03;;;7.80;1.00;;;;;;6342583;27;20235;-53
2022/10/09 05:24:48;;;;;;;6.30;4.50;;;7.80;1.00;;;;;;6331247;28;20240;-53
2022/10/09 05:27:52;;;;;;;5.10;4.63;;;7.60;1.00;;;;;;6325466;27;20631;-53
2022/10/09 05:30:54;;;;;;;6.47;4.20;;;7.80;1.00;;;;;;6333289;28;20360;-53
2022/10/09 05:34:00;;;;;;;6.20;4.93;;;7.80;1.00;;;;;;6327221;27;20238;-53
2022/10/09 05:37:03;;;;;;;9.60;5.37;;;8.00;1.00;;;;;;6348157;27;20234;-53
2022/10/09 05:40:07;;;;;;;9.40;5.07;;;7.70;1.00;;;;;;6349040;27;20239;-53
2022/10/09 05:43:10;;;;;;;6.77;4.57;;;7.80;1.00;;;;;;6334016;27;20638;-54
2022/10/09 05:46:14;;;;;;;4.90;4.50;;;7.80;1.00;;;;;;6345053;27;20628;-55
2022/10/09 05:49:18;;;;;;;5.70;4.67;;;7.80;1.00;;;;;;6343801;27;20232;-53
2022/10/09 05:52:21;;;;;;;7.00;6.30;;;7.70;1.00;;;;;;6340892;27;20232;-53
2022/10/09 05:55:25;;;;;;;7.93;6.23;;;7.80;1.00;;;;;;6345222;27;20243;-53
2022/10/09 05:58:28;;;;;;;6.70;5.40;;;7.90;1.00;;;;;;6339944;27;20231;-54
2022/10/09 06:01:33;;;;;;;9.83;5.13;;;7.80;1.00;;;;;;6341963;27;20837;-52
2022/10/09 06:04:37;;;;;;;12.87;6.00;;;7.90;1.00;;;;;;6340119;27;20219;-52
2022/10/09 06:07:40;;;;;;;10.10;5.63;;;7.90;1.00;;;;;;6334567;27;20228;-54
2022/10/09 06:10:42;;;;;;;5.90;4.80;;;7.90;1.00;;;;;;6341458;27;20240;-54
2022/10/09 06:13:46;;;;;;;7.83;5.00;;;8.20;1.00;;;;;;6343274;27;20783;-53
2022/10/09 06:16:49;;;;;;;6.60;5.47;;;8.00;1.00;;;;;;6340535;27;20228;-54
2022/10/09 06:19:54;;;;;;;9.23;6.10;;;8.10;1.00;;;;;;6338618;27;20242;-54
2022/10/09 06:22:57;;;;;;;7.60;4.83;;;8.20;1.00;;;;;;6340677;27;20266;-53
2022/10/09 06:26:03;;;;;;;7.33;5.57;;;8.20;1.00;;;;;;6337800;27;20262;-53
2022/10/09 06:29:06;;;;;;;6.50;5.20;;;8.40;1.00;;;;;;6339965;27;20232;-53
2022/10/09 06:32:09;;;;;;;13.10;5.50;;;8.30;1.00;;;;;;6335974;27;20228;-54
2022/10/09 06:35:13;;;;;;;6.17;5.57;;;8.30;1.00;;;;;;6336674;27;20239;-52
2022/10/09 06:38:16;;;;;;;5.13;4.67;;;8.40;1.00;;;;;;6338130;27;20768;-52
2022/10/09 06:41:20;;;;;;;8.20;5.23;;;8.40;1.00;;;;;;6345280;27;20231;-52
2022/10/09 06:44:23;;;;;;;5.37;4.87;;;8.50;1.00;;;;;;6341412;27;20235;-54
2022/10/09 06:47:26;;;;;;;7.30;5.43;;;8.50;1.00;;;;;;6341494;27;20750;-53
2022/10/09 06:50:30;;;;;;;8.77;5.53;;;8.60;1.00;;;;;;6338864;27;20338;-54
2022/10/09 06:53:34;;;;;;;7.70;5.03;;;8.80;1.00;;;;;;6347448;27;20239;-54
2022/10/09 06:56:37;;;;;;;5.97;5.07;;;8.90;1.00;;;;;;6337186;27;20236;-54
2022/10/09 06:59:40;;;;;;;9.07;5.80;;;9.00;1.00;;;;;;6341755;27;20236;-53
2022/10/09 07:02:43;;;;;;;7.93;5.80;;;9.00;1.00;;;;;;6335173;27;20259;-54
2022/10/09 07:05:47;;;;;;;8.10;5.40;;;9.10;1.00;;;;;;6336774;27;20235;-54
2022/10/09 07:08:52;;;;;;;6.90;5.27;;;9.10;1.00;;;;;;6333158;27;20242;-54
2022/10/09 07:11:55;;;;;;;8.30;5.63;;;9.10;1.00;;;;;;6336969;27;20631;-55
2022/10/09 07:14:58;;;;;;;8.77;5.40;;;9.20;1.00;;;;;;6326909;27;20820;-53
2022/10/09 07:18:02;;;;;;;10.47;5.57;;;9.40;1.00;;;;;;6334690;27;20235;-53
2022/10/09 07:21:08;;;;;;;8.67;5.57;;;9.40;1.00;;;;;;6339943;27;20239;-53
2022/10/09 07:24:12;;;;;;;8.60;5.27;;;9.50;1.00;;;;;;6337278;27;20232;-56
2022/10/09 07:27:14;;;;;;;6.50;5.13;;;9.60;1.00;;;;;;6334417;27;20228;-55
2022/10/09 07:30:17;;;;;;;6.87;4.97;;;9.70;1.00;;;;;;6333638;27;20255;-53
2022/10/09 07:33:20;;;;;;;5.37;4.50;;;9.80;1.00;;;;;;6336821;27;20235;-54
2022/10/09 07:36:24;;;;;;;5.03;4.50;;;9.90;1.00;;;;;;6332670;27;20228;-53
2022/10/09 07:39:27;;;;;;;4.60;4.20;;;10.00;1.00;;;;;;6330137;27;20232;-54
2022/10/09 07:42:30;;;;;;;6.90;5.13;;;10.10;1.00;;;;;;6335406;27;20235;-54
2022/10/09 07:45:34;;;;;;;7.53;4.57;;;10.30;1.00;;;;;;6334884;27;20302;-54
2022/10/09 07:48:37;;;;;;;5.77;5.27;;;10.30;1.00;;;;;;6326064;27;20589;-53
2022/10/09 07:51:41;;;;;;;8.73;5.00;;;10.40;1.00;;;;;;6331619;27;20309;-54
2022/10/09 07:54:44;;;;;;;6.80;4.63;;;10.50;1.00;;;;;;6326188;27;20716;-53
2022/10/09 07:57:47;;;;;;;6.37;4.60;;;10.60;1.00;;;;;;6330133;28;20718;-54
2022/10/09 08:00:49;;;;;;;6.60;5.23;;;10.70;1.00;;;;;;6340261;27;20244;-55
2022/10/09 08:03:52;;;;;;;5.97;4.70;;;10.80;1.00;;;;;;6329896;27;20240;-53
2022/10/09 08:06:57;;;;;;;6.13;4.63;;;10.90;1.00;;;;;;6334950;27;20616;-58
2022/10/09 08:10:00;;;;;;;5.60;4.93;;;11.10;1.00;;;;;;6336049;27;20237;-54
2022/10/09 08:13:03;;;;;;;7.17;4.93;;;11.20;1.00;;;;;;6328492;27;20707;-54
2022/10/09 08:16:07;;;;;;;8.63;5.20;;;11.20;1.00;;;;;;6335954;27;20284;-52
2022/10/09 08:19:10;;;;;;;6.97;5.10;;;11.30;1.00;;;;;;6324978;27;20604;-52
2022/10/09 08:22:14;;;;;;;6.70;4.73;;;11.30;1.00;;;;;;6327493;28;20697;-55
2022/10/09 08:25:17;;;;;;;11.00;5.23;;;11.40;1.00;;;;;;6332294;27;20237;-54
2022/10/09 08:28:20;;;;;;;6.40;5.33;;;11.40;1.00;;;;;;6333441;27;20617;-60
2022/10/09 08:31:23;;;;;;;8.03;5.07;;;11.40;1.00;;;;;;6333670;27;20766;-54
2022/10/09 08:34:26;;;;;;;8.23;5.37;;;11.50;1.00;;;;;;6334016;27;20236;-53
2022/10/09 08:37:31;;;;;;;11.33;5.23;;;11.60;1.00;;;;;;6333550;27;20701;-53
2022/10/09 08:40:41;;;;;;;10.60;5.77;;;11.60;1.00;;;;;;6329187;27;20232;-55
2022/10/09 08:43:49;;;;;;;8.37;5.17;;;11.80;1.00;;;;;;6327780;27;20243;-55
2022/10/09 08:46:59;;;;;;;9.90;4.77;;;12.00;1.00;;;;;;6333535;27;20240;-54
2022/10/09 08:50:11;;;;;;;6.87;4.60;;;12.10;1.00;;;;;;6337706;27;20397;-53
2022/10/09 08:53:28;;;;;;;9.97;5.83;;;12.20;1.00;;;;;;6334305;27;20232;-54
2022/10/09 08:56:33;;;;;;;9.77;5.70;;;12.30;1.00;;;;;;6328415;27;20406;-53
2022/10/09 08:59:36;;;;;;;7.10;5.10;;;12.40;1.00;;;;;;6333186;27;20231;-53
2022/10/09 09:03:02;;;;;;;6.37;5.73;;;12.40;1.00;;;;;;6332574;28;20271;-54
2022/10/09 09:06:09;;;;;;;5.40;4.90;;;12.70;1.00;;;;;;6334180;27;20585;-53
2022/10/09 09:09:19;;;;;;;14.03;5.07;;;12.70;1.00;;;;;;6332100;27;20228;-54
2022/10/09 09:12:32;;;;;;;7.60;5.57;;;12.80;1.00;;;;;;6332026;27;20382;-55
2022/10/09 09:15:46;;;;;;;8.27;5.30;;;12.90;1.00;;;;;;6331295;27;20236;-54
2022/10/09 09:19:02;;;;;;;7.57;5.00;;;13.10;1.00;;;;;;6340306;27;20228;-54
2022/10/09 09:22:10;;;;;;;8.73;4.60;;;13.10;1.00;;;;;;6335832;27;20232;-53
2022/10/09 09:25:23;;;;;;;6.67;4.30;;;13.30;1.00;;;;;;6325624;27;20227;-54
2022/10/09 09:28:29;;;;;;;10.17;4.83;;;13.50;1.00;;;;;;6327129;28;20224;-53
2022/10/09 09:31:36;;;;;;;7.70;4.17;;;13.60;1.00;;;;;;6328784;27;20239;-53
2022/10/09 09:34:41;;;;;;;7.50;3.87;;;13.70;1.00;;;;;;6323228;28;20308;-54
2022/10/09 09:37:44;;;;;;;5.23;3.47;;;13.80;1.00;;;;;;6326771;28;20228;-53
2022/10/09 09:40:49;;;;;;;10.63;4.50;;;13.80;1.00;;;;;;6330582;27;20228;-53
2022/10/09 09:43:52;;;;;;;6.27;3.47;;;13.90;1.00;;;;;;6332547;27;20250;-52
2022/10/09 09:46:55;;;;;;;9.93;4.27;;;14.00;1.00;;;;;;6324874;28;20246;-54
2022/10/09 09:50:00;;;;;;;5.50;3.70;;;14.20;1.00;;;;;;6336846;27;20235;-53
2022/10/09 09:53:07;;;;;;;5.50;3.53;;;14.30;1.00;;;;;;6328991;28;20240;-53
2022/10/09 09:56:11;;;;;;;5.97;4.07;;;14.50;1.00;;;;;;6334147;27;20244;-54
2022/10/09 09:59:31;;;;;;;5.87;3.83;;;14.60;1.00;;;;;;6329617;28;20239;-54
2022/10/09 10:02:33;;;;;;;6.17;3.80;;;14.70;1.00;;;;;;6331411;27;20244;-55
2022/10/09 10:05:37;;;;;;;11.23;4.40;;;14.80;1.00;;;;;;6331506;27;20224;-52
2022/10/09 10:08:40;;;;;;;5.93;3.47;;;14.90;1.00;;;;;;6327695;27;20454;-52
2022/10/09 10:11:47;;;;;;;8.23;3.80;;;15.00;1.00;;;;;;6331305;27;20712;-54
2022/10/09 10:14:50;;;;;;;11.43;4.07;;;15.20;1.00;;;;;;6335155;27;20243;-55
2022/10/09 10:17:59;;;;;;;9.87;3.90;;;15.40;1.00;;;;;;6333703;27;20617;-55
2022/10/09 10:21:06;;;;;;;7.67;3.70;;;15.40;1.00;;;;;;6333169;28;20239;-53
2022/10/09 10:24:15;;;;;;;8.53;3.57;;;15.50;1.00;;;;;;6337491;27;20689;-55
2022/10/09 10:27:25;;;;;;;12.03;3.60;;;15.60;1.00;;;;;;6336573;28;20235;-54
2022/10/09 10:30:28;;;;;;;11.13;3.20;;;15.50;1.00;;;;;;6336284;27;20231;-53
2022/10/09 10:33:33;;;;;;;8.53;3.10;;;15.60;1.00;;;;;;6334666;27;20239;-54
2022/10/09 10:36:36;;;;;;;10.13;2.83;;;15.70;1.00;;;;;;6334075;27;20236;-53
2022/10/09 10:39:45;;;;;;;6.50;3.67;;;15.80;1.00;;;;;;6336151;27;20393;-53
2022/10/09 10:43:06;;;;;;;9.37;2.97;;;15.80;1.00;;;;;;6326490;28;20233;-53
2022/10/09 10:46:17;;;;;;;8.03;3.00;;;15.80;1.00;;;;;;6334552;27;20228;-55
2022/10/09 10:49:22;;;;;;;5.70;3.10;;;15.80;1.00;;;;;;6336542;27;20752;-53
2022/10/09 10:52:37;;;;;;;9.17;3.30;;;15.80;1.00;;;;;;6336466;27;20232;-54
2022/10/09 10:55:52;;;;;;;4.73;3.00;;;15.90;1.00;;;;;;6327436;27;20228;-54
2022/10/09 10:59:10;;;;;;;3.73;2.80;;;16.00;1.00;;;;;;6326749;27;20244;-53
2022/10/09 11:02:37;;;;;;;4.17;2.60;;;16.30;1.00;;;;;;6336392;27;20670;-54
2022/10/09 11:05:50;;;;;;;5.07;2.60;;;16.40;1.00;;;;;;6334495;27;20231;-54
2022/10/09 11:09:05;;;;;;;3.97;2.73;;;16.20;1.00;;;;;;6329875;27;20251;-57
2022/10/09 11:12:14;;;;;;;4.67;2.47;;;16.30;1.00;;;;;;6336167;27;20263;-53
2022/10/09 11:15:46;;;;;;;6.80;2.30;;;16.40;1.00;;;;;;6333490;27;20231;-53
2022/10/09 11:19:09;;;;;;;5.37;2.73;;;16.70;1.00;;;;;;6338449;27;20226;-54
2022/10/09 11:22:27;;;;;;;2.67;2.33;;;17.00;1.00;;;;;;6343392;27;20240;-55
2022/10/09 11:25:36;;;;;;;6.83;3.07;;;17.20;1.00;;;;;;6336991;27;20236;-54
2022/10/09 11:28:46;;;;;;;6.53;2.70;;;17.10;1.00;;;;;;6335416;27;20283;-53
2022/10/09 11:31:55;;;;;;;3.93;2.53;;;17.30;1.00;;;;;;6334112;27;20241;-53
2022/10/09 11:35:02;;;;;;;6.87;2.47;;;17.40;1.00;;;;;;6327588;27;20236;-54
2022/10/09 11:38:12;;;;;;;4.30;2.63;;;17.50;1.00;;;;;;6334941;27;20986;-53
2022/10/09 11:41:15;;;;;;;7.33;2.90;;;17.30;1.00;;;;;;6334224;27;20606;-55
2022/10/09 11:44:39;;;;;;;6.43;2.57;;;17.20;1.00;;;;;;6337142;27;20598;-54
2022/10/09 11:47:51;;;;;;;6.43;2.47;;;17.30;1.00;;;;;;6327885;27;20243;-54
2022/10/09 11:51:01;;;;;;;3.53;2.27;;;17.30;1.00;;;;;;6334842;27;20236;-54
2022/10/09 11:54:10;;;;;;;5.10;2.77;;;17.30;1.00;;;;;;6332808;27;20255;-55
2022/10/09 11:57:13;;;;;;;5.80;2.40;;;17.20;1.00;;;;;;6322248;27;20713;-53
2022/10/09 12:00:29;;;;;;;7.53;2.97;;;17.50;1.00;;;;;;6335944;27;20600;-54
2022/10/09 12:03:35;;;;;;;5.87;2.83;;;17.60;1.00;;;;;;6344473;27;20248;-54
2022/10/09 12:06:47;;;;;;;7.80;2.80;;;17.60;1.00;;;;;;6335666;27;20250;-55
2022/10/09 12:09:56;;;;;;;5.07;2.60;;;17.50;1.00;;;;;;6334707;27;20228;-53
2022/10/09 12:13:01;;;;;;;6.27;2.67;;;17.60;1.00;;;;;;6334466;27;20247;-54
2022/10/09 12:16:06;;;;;;;5.07;2.57;;;17.60;1.00;;;;;;6326359;27;20740;-54
2022/10/09 12:19:16;;;;;;;4.63;2.57;;;17.60;1.00;;;;;;6331046;27;20410;-53
2022/10/09 12:22:23;;;;;;;5.17;3.10;;;17.60;1.00;;;;;;6336345;27;20347;-54
2022/10/09 12:25:29;;;;;;;4.60;2.57;;;17.40;1.00;;;;;;6328878;28;20237;-54
2022/10/09 12:28:37;;;;;;;4.50;2.50;;;17.30;1.00;;;;;;6330933;27;20242;-55
2022/10/09 12:31:42;;;;;;;5.70;3.17;;;17.10;1.00;;;;;;6331657;28;20570;-53
2022/10/09 12:34:49;;;;;;;3.07;2.60;;;16.90;1.00;;;;;;6331347;27;20238;-54
2022/10/09 12:37:52;;;;;;;4.87;2.63;;;16.50;1.00;;;;;;6330989;27;20697;-54
2022/10/09 12:40:57;;;;;;;5.13;2.50;;;16.40;1.00;;;;;;6333850;27;20614;-55
2022/10/09 12:44:01;;;;;;;6.43;2.73;;;16.20;1.00;;;;;;6332648;28;20224;-53
2022/10/09 12:47:07;;;;;;;4.40;2.27;;;16.10;1.00;;;;;;6331522;28;20228;-55
2022/10/09 12:50:22;;;;;;;6.03;3.00;;;16.20;1.00;;;;;;6333352;28;20247;-53
2022/10/09 12:53:27;;;;;;;4.57;3.13;;;16.40;1.00;;;;;;6334922;27;20235;-55
2022/10/09 12:56:32;;;;;;;5.10;2.77;;;16.50;1.00;;;;;;6332517;27;20739;-53
2022/10/09 12:59:35;;;;;;;4.40;2.43;;;16.50;1.00;;;;;;6327292;27;20235;-53
2022/10/09 13:02:40;;;;;;;4.53;2.37;;;16.20;1.00;;;;;;6340387;27;20691;-53
2022/10/09 13:05:44;;;;;;;7.07;2.47;;;16.20;1.00;;;;;;6337524;27;20242;-61
2022/10/09 13:08:52;;;;;;;5.87;3.03;;;16.30;1.00;;;;;;6336627;27;20235;-55
2022/10/09 13:11:58;;;;;;;7.30;2.67;;;16.40;1.00;;;;;;6337121;27;20404;-53
2022/10/09 13:15:03;;;;;;;2.93;2.60;;;16.60;1.00;;;;;;6340490;27;20231;-54
2022/10/09 13:18:19;;;;;;;7.03;2.50;;;16.60;1.00;;;;;;6340471;27;20388;-54
2022/10/09 13:21:26;;;;;;;8.60;2.97;;;16.60;1.00;;;;;;6334609;27;20721;-53
2022/10/09 13:24:34;;;;;;;4.77;2.80;;;16.50;1.00;;;;;;6332737;27;20240;-55
2022/10/09 13:27:39;;;;;;;10.73;3.40;;;16.50;1.00;;;;;;6332551;28;20239;-53
2022/10/09 13:30:42;;;;;;;6.13;2.80;;;16.60;1.00;;;;;;6332253;28;20234;-55
2022/10/09 13:33:45;;;;;;;6.10;2.07;;;16.80;1.00;;;;;;6332539;28;20231;-53
2022/10/09 13:36:50;;;;;;;5.37;2.60;;;16.80;1.00;;;;;;6331210;28;20275;-55
2022/10/09 13:39:53;;;;;;;4.37;2.63;;;16.80;1.00;;;;;;6330589;28;20837;-53
2022/10/09 13:43:01;;;;;;;5.77;2.40;;;16.70;1.00;;;;;;6330861;28;20637;-55
2022/10/09 13:46:03;;;;;;;2.90;2.70;;;16.40;1.00;;;;;;6331309;28;20224;-54
2022/10/09 13:49:06;;;;;;;4.10;2.87;;;16.30;1.00;;;;;;6332283;27;20236;-53
2022/10/09 13:52:10;;;;;;;5.73;2.77;;;16.30;1.00;;;;;;6321727;28;20489;-53
2022/10/09 13:55:14;;;;;;;4.40;2.70;;;16.30;1.00;;;;;;6328483;28;20362;-54
2022/10/09 13:58:17;;;;;;;8.00;3.43;;;16.40;1.00;;;;;;6334572;28;20260;-54
2022/10/09 14:01:20;;;;;;;5.73;3.00;;;16.30;1.00;;;;;;6333175;27;20724;-53
2022/10/09 14:04:23;;;;;;;4.60;3.47;;;16.20;1.00;;;;;;6333930;27;20232;-54
2022/10/09 14:07:27;;;;;;;6.97;2.70;;;16.10;1.00;;;;;;6335859;27;20239;-54
2022/10/09 14:10:30;;;;;;;5.13;3.27;;;16.00;1.00;;;;;;6332221;27;20606;-54
2022/10/09 14:13:33;;;;;;;4.97;2.73;;;16.00;1.00;;;;;;6343064;27;20246;-53
2022/10/09 14:16:36;;;;;;;5.93;3.47;;;16.00;1.00;;;;;;6347125;27;20228;-55
2022/10/09 14:19:39;;;;;;;5.20;3.60;;;16.10;1.00;;;;;;6338388;27;20227;-54
2022/10/09 14:22:43;;;;;;;5.37;3.50;;;16.10;1.00;;;;;;6336550;27;20528;-53
2022/10/09 14:25:45;;;;;;;8.70;4.83;;;16.20;1.00;;;;;;6336413;27;20725;-55
2022/10/09 14:28:48;;;;;;;7.53;3.93;;;16.20;1.00;;;;;;6336223;27;20236;-53
2022/10/09 14:31:51;;;;;;;4.33;3.93;;;16.20;1.00;;;;;;6332476;27;20779;-54
2022/10/09 14:34:54;;;;;;;7.80;3.50;;;16.20;1.00;;;;;;6332407;27;20243;-53
2022/10/09 14:37:59;;;;;;;5.33;2.83;;;16.10;1.00;;;;;;6332134;27;20239;-54
2022/10/09 14:41:01;;;;;;;4.37;2.93;;;16.00;1.00;;;;;;6336000;27;20239;-53
2022/10/09 14:44:04;;;;;;;4.80;2.57;;;15.90;1.00;;;;;;6336872;27;20700;-55
2022/10/09 14:47:07;;;;;;;6.00;2.97;;;15.90;1.00;;;;;;6335836;28;20251;-54
2022/10/09 14:50:10;;;;;;;3.00;2.80;;;15.90;1.00;;;;;;6340295;27;20830;-54
2022/10/09 14:53:15;;;;;;;3.00;2.70;;;15.80;1.00;;;;;;6317890;27;20232;-55
2022/10/09 14:56:20;;;;;;;3.20;2.67;;;15.70;1.00;;;;;;6307077;27;20700;-54
2022/10/09 14:59:23;;;;;;;4.13;2.83;;;15.60;1.00;;;;;;6304793;27;20732;-53
2022/10/09 15:02:26;;;;;;;7.60;2.50;;;15.50;1.00;;;;;;6301680;27;20396;-53
2022/10/09 15:05:29;;;;;;;6.47;3.13;;;15.40;1.00;;;;;;6297777;27;21446;-55
2022/10/09 15:08:35;;;;;;;5.53;3.07;;;15.30;1.00;;;;;;6298286;27;20232;-54
2022/10/09 15:11:38;;;;;;;3.10;2.47;;;15.20;1.00;;;;;;6304038;27;20698;-53
2022/10/09 15:14:41;;;;;;;3.63;3.10;;;15.10;1.00;;;;;;6302103;27;20866;-54
2022/10/09 15:17:44;;;;;;;8.40;4.90;;;15.10;1.00;;;;;;6303981;27;20468;-53
2022/10/09 15:20:47;;;;;;;8.13;4.47;;;15.00;1.00;;;;;;6307037;27;20258;-53
2022/10/09 15:23:53;;;;;;;6.90;5.03;;;15.00;1.00;;;;;;6300684;27;20698;-55
2022/10/09 15:26:56;;;;;;;8.30;5.17;;;14.80;1.00;;;;;;6305446;27;20232;-54
2022/10/09 15:29:59;;;;;;;7.37;5.13;;;14.70;1.00;;;;;;6302114;27;20783;-55
2022/10/09 15:33:02;;;;;;;5.50;4.90;;;14.60;1.00;;;;;;6301497;27;20680;-54
2022/10/09 15:36:05;;;;;;;5.80;5.30;;;14.60;1.00;;;;;;6297869;27;21118;-56
2022/10/09 15:39:10;;;;;;;8.20;5.93;;;14.40;1.00;;;;;;6311745;27;20600;-55
2022/10/09 15:42:13;;;;;;;5.03;4.53;;;14.40;1.00;;;;;;6331744;27;20239;-54
2022/10/09 15:45:16;;;;;;;7.27;5.03;;;14.30;1.00;;;;;;6332982;28;20232;-54
2022/10/09 15:48:21;;;;;;;5.70;4.00;;;14.20;1.00;;;;;;6342191;27;20243;-54
2022/10/09 15:51:24;;;;;;;4.53;4.07;;;14.20;1.00;;;;;;6340418;27;20236;-55
2022/10/09 15:54:29;;;;;;;6.13;4.30;;;14.10;1.00;;;;;;6324352;27;20224;-54
2022/10/09 15:57:31;;;;;;;6.23;4.23;;;14.00;1.00;;;;;;6330298;27;20232;-53
2022/10/09 16:00:36;;;;;;;4.10;3.70;;;14.00;1.00;;;;;;6332172;27;20605;-53
2022/10/09 16:03:39;;;;;;;6.23;3.60;;;14.00;1.00;;;;;;6334487;27;20389;-55
2022/10/09 16:06:42;;;;;;;4.30;3.83;;;13.90;1.00;;;;;;6333277;28;20228;-54
2022/10/09 16:09:46;;;;;;;4.90;3.53;;;13.80;1.00;;;;;;6332023;27;20593;-54
2022/10/09 16:12:49;;;;;;;3.37;3.00;;;13.70;1.00;;;;;;6334448;27;20250;-53
2022/10/09 16:15:52;;;;;;;4.03;3.70;;;13.60;1.00;;;;;;6337956;27;20243;-53
2022/10/09 16:18:56;;;;;;;3.60;3.30;;;13.60;1.00;;;;;;6335934;27;20293;-54
2022/10/09 16:21:59;;;;;;;2.93;2.73;;;13.50;1.00;;;;;;6342304;27;20244;-53